Aviation Digital Data Service (ADDS)

Output produced by METARs form (2338 UTC 23 October 2019)
found at http://www.aviationweather.gov/metar/data/
 
Forecast for: LMML (LUQA/MALTA , MT)
Text: TAF LMML 232300Z 2400/2424 02016KT 9999 SCT023
Forecast period: 0000 UTC 24 October 2019 to 0000 UTC 25 October 2019
Forecast type: FROM: standard forecast or significant change
Winds: from the NNE (20 degrees) at 18 MPH (16 knots; 8.2 m/s)
Visibility: 6 or more miles 10+ km)
Ceiling: at least 12,000 feet AGL
Clouds: scattered clouds at 2300 feet AGL
Weather: no significant weather forecast for this period
Text: TEMPO 2414/2424 7000 SHRA
Forecast period: 1400 UTC 24 October 2019 to 0000 UTC 25 October 2019
Forecast type: TEMPORARY: The following changes expected for less than half the time period
Visibility: 4 miles (7 km)
Ceiling: unknown
Clouds: missing
Weather: SHRA  (rain showers)
Text: PROB40
Forecast period: 1400 UTC 24 October 2019 to 0000 UTC 25 October 2019
Forecast type: TEMPORARY: The following changes expected for less than half the time period
Winds: variable direction winds at 23 MPH (20 knots; 10.3 m/s)
gusting to 37 MPH (32 knots; 16.5 m/s)
Visibility: 2.49 miles (4.01 km)
Ceiling: 8000 feet AGL
Clouds: broken clouds at 8000 feet AGL
Weather: TSRA TSRA TSGS  (rain associated with thunderstorm(s), rain associated with thunderstorm(s), small hail or graupel associated with thunderstorm(s))